Kansas City, MO

6:25 PM CDT on July 23, 2016 (GMT -0500)
Weatherby Lake Westside | | Change Station
Active Advisory: Excessive Heat Warning

Elev 909 ft 39.23 °N, 94.70 °W | Updated 12 seconds ago

Mostly Cloudy
Mostly Cloudy
89.1 °F
Feels Like 101 °F
N
0.0
Wind Variable Wind from South
Gusts 0.7 mph

Today
High -- | Low -- °F
--% Chance of Precip.
Yesterday
High -- | Low -- °F
Precip. -- in
Pressure 29.83 in
Visibility 10.0 miles
Clouds Mostly Cloudy 13000 ft
Mostly Cloudy 23000 ft
Heat Index 101 °F
Dew Point 76 °F
Humidity 66%
Rainfall 0.00 in
Snow Depth Not available.
6:11 AM 8:38 PM
Waning Gibbous, 81% visible
METAR KMCI 232253Z 18006KT 10SM BKN130 BKN230 31/24 A2987 RMK AO2 SLP102 T03060244
Pressure 29.83 in
Visibility 10.0 miles
Clouds Mostly Cloudy 13000 ft
Mostly Cloudy 23000 ft
Heat Index 101 °F
Dew Point 76 °F
Humidity 66%
Rainfall 0.00 in
Snow Depth Not available.
6:11 AM 8:38 PM
Waning Gibbous, 81% visible
METAR KMCI 232253Z 18006KT 10SM BKN130 BKN230 31/24 A2987 RMK AO2 SLP102 T03060244

10-Day Weather Forecast

Almanac

Astronomy

Jul. 23, 2016 Rise Set
Actual Time
Civil Twilight
Nautical Twilight
Astronomical Twilight
Moon
Length of Visible Light
Length of Day
Tomorrow will be .
, % of the Moon is Illuminated

Today's Extremes

State Highs State Lows

Community

WunderPhotos

Upload Photos

1,926,971 photos uploaded!

WunderBlog® & News

Nearby

Air Quality

  Air Quality AQ Index Pollutant
Not available.

Snow Depth

Station Depth Elevation

Earthquake Activity

City Distance Mag. Time & Date
Minimum magnitude displayed is 2.5.

Coastal Water Temperatures

Place Temperature

Stations

Nearby Weather Stations

Station Location Temp. Windchill Dew Point Humidity Wind Precip. Elev Updated Type
                   

Watches & Warnings

Excessive Heat Warning
Issued: 4:16 PM CDT Jul. 23, 2016 – National Weather Service

... Excessive heat warning remains in effect until 8 PM CDT
Sunday...

* temperatures... mid to upper 90s.

* Heat indices... 105 to 110 degrees.

* Impacts... the combination of very warm temperatures and high
humidity will lead to oppressive conditions which could
quickly lead to heat related illnesses.

Precautionary/preparedness actions...

Take extra precautions if you work or spend time outside. When
possible... reschedule strenuous activities to early morning or
evening. Know the signs and symptoms of heat exhaustion and heat
stroke. Wear light weight and loose fitting clothing... drink
plenty of fluids avoiding caffeinated and alcoholic beverages...
stay in an air-conditioned room and out of the sun... and check up
on relatives and neighbors.

Young children and pets should never be left unattended in
vehicles under any circumstances. This is especially true during
warm or hot weather when car interiors can reach lethal
temperatures in a matter of minutes.